createdAt,value
2022-08-23T00:01:24.268Z,3.95
2022-08-23T00:03:52.756Z,2.58
2022-08-23T00:06:22.201Z,3.22
2022-08-23T00:08:51.242Z,2.75
2022-08-23T00:11:39.890Z,3.63
2022-08-23T00:14:12.664Z,2.78
2022-08-23T00:16:41.315Z,3.13
2022-08-23T00:19:09.983Z,2.72
2022-08-23T00:21:38.489Z,2.88
2022-08-23T00:24:07.199Z,2.95
2022-08-23T00:26:55.142Z,3.42
2022-08-23T00:29:26.110Z,3.22
2022-08-23T00:31:54.401Z,2.67
2022-08-23T00:34:22.145Z,2.90
2022-08-23T00:36:50.691Z,3.95
2022-08-23T00:39:18.879Z,3.13
2022-08-23T00:41:47.316Z,3.65
2022-08-23T00:44:38.006Z,3.30
2022-08-23T00:47:25.756Z,2.80
2022-08-23T00:50:23.552Z,3.05
2022-08-23T00:53:12.966Z,4.25
2022-08-23T00:55:41.787Z,3.78
2022-08-23T00:58:09.522Z,3.30
2022-08-23T01:00:38.151Z,3.67
2022-08-23T01:03:08.357Z,3.00
2022-08-23T01:05:52.328Z,3.00
2022-08-23T01:08:23.583Z,2.78
2022-08-23T01:10:54.219Z,2.67
2022-08-23T01:13:30.195Z,3.15
2022-08-23T01:16:01.386Z,3.10
2022-08-23T01:18:30.430Z,2.95
2022-08-23T01:21:06.437Z,3.40
2022-08-23T01:23:42.300Z,2.90
2022-08-23T01:26:10.942Z,3.03
2022-08-23T01:28:40.894Z,3.35
2022-08-23T01:31:14.448Z,3.35
2022-08-23T01:33:43.589Z,2.83
2022-08-23T01:36:12.449Z,3.03
2022-08-23T01:38:40.133Z,3.05
2022-08-23T01:41:07.938Z,3.25
2022-08-23T01:43:36.293Z,3.13
2022-08-23T01:46:12.516Z,3.20
2022-08-23T01:48:40.403Z,3.40
2022-08-23T01:51:08.421Z,2.90
2022-08-23T01:53:36.923Z,3.13
2022-08-23T01:56:05.588Z,3.42
2022-08-23T01:58:37.064Z,3.45
2022-08-23T02:01:05.723Z,3.58
2022-08-23T02:03:34.881Z,3.25
2022-08-23T02:06:02.710Z,3.08
2022-08-23T02:08:48.978Z,3.15
2022-08-23T02:11:23.336Z,3.35
2022-08-23T02:13:51.885Z,2.95
2022-08-23T02:16:34.369Z,2.85
2022-08-23T02:19:03.842Z,3.30
2022-08-23T02:21:31.757Z,2.92
2022-08-23T02:23:59.992Z,3.20
2022-08-23T02:26:31.153Z,3.55
2022-08-23T02:28:59.462Z,2.50
2022-08-23T02:31:27.371Z,3.47
2022-08-23T02:33:55.879Z,3.05
2022-08-23T02:36:24.452Z,3.05
2022-08-23T02:38:53.535Z,3.67
2022-08-23T02:41:21.642Z,3.03
2022-08-23T02:43:53.156Z,3.10
2022-08-23T02:46:23.388Z,3.05
2022-08-23T02:48:52.986Z,2.88
2022-08-23T02:51:20.954Z,3.28
2022-08-23T02:53:48.600Z,2.72
2022-08-23T02:56:21.441Z,3.67
2022-08-23T02:58:54.450Z,3.28
2022-08-23T03:01:25.961Z,3.10
2022-08-23T03:03:55.937Z,2.90
2022-08-23T03:06:25.293Z,3.13
2022-08-23T03:08:54.369Z,3.10
2022-08-23T03:11:22.771Z,2.80
2022-08-23T03:13:53.991Z,3.22
2022-08-23T03:16:22.114Z,3.60
2022-08-23T03:18:50.148Z,3.22
2022-08-23T03:21:21.266Z,3.55
2022-08-23T03:23:49.148Z,3.95
2022-08-23T03:26:17.659Z,2.80
2022-08-23T03:28:45.801Z,3.10
2022-08-23T03:31:15.256Z,3.13
2022-08-23T03:33:53.313Z,2.90
2022-08-23T03:36:21.492Z,2.80
2022-08-23T03:38:56.626Z,2.72
2022-08-23T03:41:25.138Z,3.58
2022-08-23T03:43:53.175Z,3.78
2022-08-23T03:46:24.370Z,3.22
2022-08-23T03:48:59.572Z,3.42
2022-08-23T03:51:29.661Z,3.22
2022-08-23T03:53:58.631Z,3.05
2022-08-23T03:56:35.182Z,3.40
2022-08-23T03:59:05.139Z,4.03
2022-08-23T04:01:33.131Z,3.23
2022-08-23T04:04:00.835Z,3.60
2022-08-23T04:06:31.847Z,3.25
2022-08-23T04:09:00.033Z,2.92
2022-08-23T04:11:27.887Z,3.30
2022-08-23T04:14:03.055Z,3.05
2022-08-23T04:16:33.385Z,3.47
2022-08-23T04:19:01.683Z,3.95
2022-08-23T04:21:32.534Z,2.90
2022-08-23T04:24:00.241Z,4.28
2022-08-23T04:26:30.360Z,4.03
2022-08-23T04:28:58.575Z,3.57
2022-08-23T04:31:26.765Z,3.85
2022-08-23T04:33:56.626Z,3.40
2022-08-23T04:36:24.968Z,3.42
2022-08-23T04:38:53.215Z,2.92
2022-08-23T04:41:39.952Z,4.05
2022-08-23T04:44:07.584Z,3.45
2022-08-23T04:46:36.246Z,3.50
2022-08-23T04:49:04.462Z,3.50
2022-08-23T04:51:32.561Z,3.75
2022-08-23T04:54:00.563Z,3.63
2022-08-23T04:56:44.339Z,4.90
2022-08-23T04:59:19.737Z,3.45
2022-08-23T05:01:47.400Z,3.08
2022-08-23T05:04:15.617Z,3.95
2022-08-23T05:06:43.862Z,3.67
2022-08-23T05:09:11.467Z,3.88
2022-08-23T05:11:39.168Z,3.75
2022-08-23T05:14:07.689Z,3.55
2022-08-23T05:16:35.613Z,4.15
2022-08-23T05:19:09.151Z,3.40
2022-08-23T05:21:43.297Z,4.47
2022-08-23T05:24:13.802Z,4.95
2022-08-23T05:26:43.563Z,4.10
2022-08-23T05:29:11.745Z,5.03
2022-08-23T05:31:44.871Z,4.20
2022-08-23T05:34:16.392Z,4.88
2022-08-23T05:36:55.355Z,4.38
2022-08-23T05:39:35.556Z,3.63
2022-08-23T05:42:07.223Z,3.28
2022-08-23T05:44:36.512Z,3.53
2022-08-23T05:47:11.115Z,3.72
2022-08-23T05:49:59.449Z,3.22
2022-08-23T05:54:58.288Z,3.80
2022-08-23T05:57:38.442Z,4.03
2022-08-23T06:00:08.710Z,4.00
2022-08-23T06:02:46.516Z,3.75
2022-08-23T06:05:14.423Z,4.40
2022-08-23T06:07:43.641Z,3.80
2022-08-23T06:10:15.887Z,3.55
2022-08-23T06:12:48.395Z,3.65
2022-08-23T06:15:16.528Z,3.58
2022-08-23T06:17:44.232Z,3.78
2022-08-23T06:20:12.383Z,3.15
2022-08-23T06:22:58.693Z,3.50
2022-08-23T06:25:26.355Z,3.63
2022-08-23T06:28:00.855Z,3.92
2022-08-23T06:30:31.033Z,3.63
2022-08-23T06:33:01.596Z,3.92
2022-08-23T06:35:39.080Z,4.15
2022-08-23T06:38:21.134Z,3.47
2022-08-23T06:40:51.741Z,3.60
2022-08-23T06:43:26.368Z,3.33
2022-08-23T06:46:29.363Z,3.90
2022-08-23T06:48:58.755Z,4.45
2022-08-23T06:51:29.842Z,4.22
2022-08-23T06:54:12.814Z,4.22
2022-08-23T06:57:01.218Z,3.83
2022-08-23T06:59:31.543Z,3.45
2022-08-23T07:02:14.951Z,3.53
2022-08-23T07:04:58.288Z,4.25
2022-08-23T07:07:58.327Z,3.47
2022-08-23T07:10:26.042Z,3.47
2022-08-23T07:12:54.387Z,3.25
2022-08-23T07:15:22.130Z,3.20
2022-08-23T07:17:50.004Z,3.17
2022-08-23T07:20:18.463Z,3.70
2022-08-23T07:22:46.251Z,3.40
2022-08-23T07:25:14.406Z,3.00
2022-08-23T07:27:46.054Z,3.72
2022-08-23T07:30:16.236Z,2.83
2022-08-23T07:32:46.154Z,3.90
2022-08-23T07:35:24.177Z,3.85
2022-08-23T07:37:55.603Z,3.00
2022-08-23T07:40:24.737Z,3.13
2022-08-23T07:42:58.279Z,3.63
2022-08-23T07:45:27.440Z,3.35
2022-08-23T07:48:01.213Z,3.60
2022-08-23T07:50:31.601Z,3.58
2022-08-23T07:53:03.356Z,2.53
2022-08-23T07:55:31.404Z,3.65
2022-08-23T07:58:23.190Z,3.20
2022-08-23T08:00:56.783Z,2.92
2022-08-23T08:03:41.074Z,3.17
2022-08-23T08:06:18.168Z,3.53
2022-08-23T08:08:46.033Z,3.00
2022-08-23T08:11:15.037Z,2.85
2022-08-23T08:13:43.851Z,3.63
2022-08-23T08:16:12.303Z,3.35
2022-08-23T08:18:41.931Z,3.65
2022-08-23T08:21:42.370Z,3.22
2022-08-23T08:24:28.634Z,3.10
2022-08-23T08:27:03.924Z,2.88
2022-08-23T08:29:31.830Z,2.95
2022-08-23T08:32:00.199Z,3.72
2022-08-23T08:34:28.045Z,3.83
2022-08-23T08:36:58.381Z,2.67
2022-08-23T08:39:32.161Z,3.92
2022-08-23T08:42:08.507Z,3.38
2022-08-23T08:44:38.686Z,2.85
2022-08-23T08:47:16.412Z,3.30
2022-08-23T08:49:56.134Z,2.83
2022-08-23T08:52:32.385Z,2.90
2022-08-23T08:55:11.840Z,2.33
2022-08-23T08:57:42.446Z,3.00
2022-08-23T09:00:20.404Z,2.85
2022-08-23T09:02:50.412Z,3.17
2022-08-23T09:05:27.049Z,3.45
2022-08-23T09:08:13.758Z,2.83
2022-08-23T09:10:41.931Z,3.00
2022-08-23T09:13:26.304Z,2.78
2022-08-23T09:16:06.609Z,3.22
2022-08-23T09:18:35.841Z,3.40
2022-08-23T09:21:06.785Z,3.17
2022-08-23T09:23:38.281Z,3.60
2022-08-23T09:26:37.326Z,3.70
2022-08-23T09:29:08.021Z,9.73
2022-08-23T09:31:41.942Z,3.00
2022-08-23T09:34:15.991Z,3.65
2022-08-23T09:37:06.197Z,2.90
2022-08-23T09:39:35.163Z,2.83
2022-08-23T09:42:27.298Z,3.10
2022-08-23T09:44:56.496Z,3.20
2022-08-23T09:47:32.104Z,2.65
2022-08-23T09:50:08.826Z,4.00
2022-08-23T09:52:38.323Z,4.05
2022-08-23T09:55:10.013Z,2.35
2022-08-23T09:57:49.632Z,2.83
2022-08-23T10:00:23.383Z,3.10
2022-08-23T10:02:57.535Z,2.83
2022-08-23T10:05:31.422Z,2.28
2022-08-23T10:08:00.848Z,2.85
2022-08-23T10:10:38.350Z,2.25
2022-08-23T10:13:07.842Z,2.03
2022-08-23T10:16:02.660Z,2.65
2022-08-23T10:18:32.260Z,2.33
2022-08-23T10:21:24.198Z,3.53
2022-08-23T10:24:07.931Z,1.90
2022-08-23T10:26:36.725Z,1.80
2022-08-23T10:29:37.349Z,1.90
2022-08-23T10:32:05.520Z,1.83
2022-08-23T10:34:50.721Z,2.55
2022-08-23T10:37:45.965Z,1.95
2022-08-23T10:40:23.979Z,1.70
2022-08-23T10:42:56.676Z,1.63
2022-08-23T10:45:37.095Z,1.80
2022-08-23T10:48:21.505Z,1.67
2022-08-23T10:50:56.133Z,2.00
2022-08-23T10:53:28.286Z,1.80
2022-08-23T10:56:03.312Z,1.65
2022-08-23T10:58:39.645Z,2.13
2022-08-23T11:01:08.167Z,2.08
2022-08-23T11:03:51.395Z,1.73
2022-08-23T11:06:37.900Z,1.85
2022-08-23T11:09:28.674Z,2.05
2022-08-23T11:12:16.438Z,2.42
2022-08-23T11:14:58.101Z,1.67
2022-08-23T11:17:35.597Z,1.60
2022-08-23T11:20:09.858Z,1.95
2022-08-23T11:22:57.144Z,1.60
2022-08-23T11:25:27.904Z,2.20
2022-08-23T11:28:15.892Z,1.92
2022-08-23T11:30:45.579Z,2.22
2022-08-23T11:33:35.072Z,1.65
2022-08-23T11:36:09.333Z,1.90
2022-08-23T11:38:47.940Z,1.95
2022-08-23T11:41:20.105Z,1.77
2022-08-23T11:43:49.517Z,1.58
2022-08-23T11:46:26.802Z,1.90
2022-08-23T11:49:31.732Z,2.00
2022-08-23T11:52:18.422Z,1.83
2022-08-23T11:54:52.212Z,1.70
2022-08-23T11:57:20.027Z,1.98
2022-08-23T11:59:50.834Z,1.80
2022-08-23T12:02:37.674Z,2.50
2022-08-23T12:05:19.501Z,2.00
2022-08-23T12:07:52.673Z,2.40
2022-08-23T12:10:38.772Z,1.77
2022-08-23T12:13:19.582Z,1.40
2022-08-23T12:16:06.118Z,1.67
2022-08-23T12:18:35.087Z,1.83
2022-08-23T12:21:04.879Z,1.60
2022-08-23T12:23:43.540Z,6.15
2022-08-23T12:26:14.935Z,1.67
2022-08-23T12:28:46.680Z,1.42
2022-08-23T12:31:31.549Z,1.58
2022-08-23T12:34:16.368Z,1.50
2022-08-23T12:37:13.421Z,1.42
2022-08-23T12:39:49.136Z,1.73
2022-08-23T12:42:20.013Z,1.65
2022-08-23T12:44:58.908Z,2.58
2022-08-23T12:47:26.880Z,1.97
2022-08-23T12:50:15.160Z,3.65
2022-08-23T12:52:43.457Z,1.60
2022-08-23T12:55:19.753Z,1.33
2022-08-23T12:57:54.559Z,1.75
2022-08-23T13:00:43.347Z,1.60
2022-08-23T13:03:11.500Z,1.30
2022-08-23T13:05:41.756Z,1.30
2022-08-23T13:08:16.005Z,1.92
2022-08-23T13:10:44.661Z,1.48
2022-08-23T13:13:14.206Z,1.85
2022-08-23T13:15:41.888Z,1.00
2022-08-23T13:18:09.617Z,1.27
2022-08-23T13:20:37.309Z,1.05
2022-08-23T13:23:06.484Z,1.08
2022-08-23T13:25:36.973Z,1.10
2022-08-23T13:28:09.752Z,1.02
2022-08-23T13:30:39.094Z,1.10
2022-08-23T13:33:07.622Z,1.00
2022-08-23T13:35:36.987Z,1.00
2022-08-23T13:38:07.840Z,1.42
2022-08-23T13:40:41.955Z,1.10
2022-08-23T13:43:12.728Z,1.10
2022-08-23T13:45:54.816Z,1.35
2022-08-23T13:48:27.921Z,1.15
2022-08-23T13:51:15.719Z,1.25
2022-08-23T13:53:43.478Z,1.10
2022-08-23T13:56:11.440Z,1.67
2022-08-23T13:58:39.177Z,1.60
2022-08-23T14:01:10.126Z,1.10
2022-08-23T14:03:38.429Z,1.30
2022-08-23T14:06:06.213Z,1.20
2022-08-23T14:08:33.996Z,1.10
2022-08-23T14:11:01.685Z,1.40
2022-08-23T14:13:30.242Z,1.10
2022-08-23T14:21:38.251Z,1.15
2022-08-23T14:24:06.057Z,1.30
2022-08-23T14:26:33.917Z,1.33
2022-08-23T14:29:01.627Z,1.35
2022-08-23T14:31:29.380Z,1.17
2022-08-23T14:34:01.781Z,1.17
2022-08-23T14:36:30.092Z,1.10
2022-08-23T14:38:57.954Z,1.00
2022-08-23T14:41:27.242Z,1.50
2022-08-23T14:46:24.077Z,1.00
2022-08-23T14:48:52.025Z,1.20
2022-08-23T14:51:25.143Z,1.20
2022-08-23T14:53:53.330Z,1.15
2022-08-23T14:56:21.984Z,1.00
2022-08-23T14:58:50.784Z,1.13
2022-08-23T15:01:19.483Z,1.02
2022-08-23T15:03:47.643Z,1.08
2022-08-23T15:06:16.631Z,1.05
2022-08-23T15:08:44.549Z,1.10
2022-08-23T15:14:00.757Z,1.50
2022-08-23T15:16:28.788Z,1.30
2022-08-23T15:18:57.131Z,1.25
2022-08-23T15:21:25.338Z,1.52
2022-08-23T15:23:53.185Z,0.88
2022-08-23T15:26:24.301Z,1.17
2022-08-23T15:28:52.147Z,1.20
2022-08-23T15:31:20.697Z,1.08
2022-08-23T15:33:49.173Z,0.97
2022-08-23T15:36:17.408Z,1.52
2022-08-23T15:38:47.661Z,1.20
2022-08-23T15:41:16.378Z,1.10
2022-08-23T15:43:44.524Z,1.20
2022-08-23T15:46:16.617Z,1.10
2022-08-23T15:48:48.649Z,1.23
2022-08-23T15:51:18.206Z,1.40
2022-08-23T15:53:46.407Z,1.23
2022-08-23T15:56:16.557Z,1.58
2022-08-23T15:58:44.548Z,1.25
2022-08-23T16:01:12.914Z,1.33
2022-08-23T16:03:44.756Z,1.35
2022-08-23T16:06:13.775Z,1.23
2022-08-23T16:08:46.021Z,1.65
2022-08-23T16:11:14.172Z,1.40
2022-08-23T16:13:43.882Z,1.83
2022-08-23T16:16:19.360Z,1.15
2022-08-23T16:18:51.642Z,1.40
2022-08-23T16:21:19.530Z,1.35
2022-08-23T16:23:47.601Z,1.48
2022-08-23T16:26:22.274Z,1.00
2022-08-23T16:28:52.653Z,1.52
2022-08-23T16:31:20.450Z,1.48
2022-08-23T16:33:50.400Z,1.50
2022-08-23T16:36:18.498Z,1.25
2022-08-23T16:38:46.325Z,2.10
2022-08-23T16:41:14.084Z,1.30
2022-08-23T16:43:41.733Z,1.50
2022-08-23T16:46:10.228Z,1.38
2022-08-23T16:48:38.184Z,1.27
2022-08-23T16:51:05.908Z,1.40
2022-08-23T16:53:33.624Z,1.58
2022-08-23T16:56:01.339Z,1.33
2022-08-23T16:58:29.020Z,1.00
2022-08-23T17:00:56.743Z,1.20
2022-08-23T17:03:27.046Z,1.50
2022-08-23T17:05:55.095Z,1.60
2022-08-23T17:08:23.062Z,1.38
2022-08-23T17:10:51.086Z,1.40
2022-08-23T17:13:19.174Z,1.27
2022-08-23T17:15:46.854Z,1.30
2022-08-23T17:18:14.547Z,1.50
2022-08-23T17:20:42.218Z,1.20
2022-08-23T17:23:10.109Z,1.20
2022-08-23T17:25:38.509Z,1.42
2022-08-23T17:28:07.315Z,1.30
2022-08-23T17:30:35.486Z,1.38
2022-08-23T17:33:03.393Z,1.40
2022-08-23T17:35:37.921Z,1.48
2022-08-23T17:38:06.763Z,2.00
2022-08-23T17:40:35.977Z,1.60
2022-08-23T17:43:04.332Z,2.13
2022-08-23T17:45:34.148Z,1.40
2022-08-23T17:48:01.784Z,2.00
2022-08-23T17:50:30.166Z,1.40
2022-08-23T17:52:58.136Z,1.10
2022-08-23T17:55:25.973Z,1.42
2022-08-23T17:57:58.181Z,1.25
2022-08-23T18:00:32.549Z,1.55
2022-08-23T18:03:00.795Z,1.45
2022-08-23T18:05:30.261Z,1.10
2022-08-23T18:07:58.766Z,1.25
2022-08-23T18:10:26.870Z,1.27
2022-08-23T18:12:55.032Z,1.50
2022-08-23T18:15:22.734Z,1.48
2022-08-23T18:17:52.228Z,1.83
2022-08-23T18:20:24.122Z,1.45
2022-08-23T18:22:52.055Z,2.25
2022-08-23T18:25:19.787Z,1.88
2022-08-23T18:28:06.196Z,1.70
2022-08-23T18:30:35.010Z,2.00
2022-08-23T18:33:03.025Z,1.90
2022-08-23T18:35:32.448Z,1.90
2022-08-23T18:38:01.203Z,1.92
2022-08-23T18:40:29.841Z,2.00
2022-08-23T18:42:57.944Z,2.50
2022-08-23T18:45:25.819Z,1.98
2022-08-23T18:47:53.706Z,1.83
2022-08-23T18:50:21.508Z,2.00
2022-08-23T18:52:49.113Z,1.67
2022-08-23T18:55:17.657Z,2.30
2022-08-23T18:57:47.316Z,2.25
2022-08-23T19:00:15.372Z,1.98
2022-08-23T19:02:43.003Z,1.83
2022-08-23T19:05:10.832Z,2.08
2022-08-23T19:07:38.500Z,1.98
2022-08-23T19:10:06.600Z,2.00
2022-08-23T19:12:34.407Z,2.30
2022-08-23T19:15:02.116Z,2.08
2022-08-23T19:17:29.891Z,1.85
2022-08-23T19:19:59.663Z,1.80
2022-08-23T19:22:27.443Z,2.13
2022-08-23T19:24:55.843Z,2.10
2022-08-23T19:27:23.421Z,1.98
2022-08-23T19:29:51.061Z,1.98
2022-08-23T19:32:19.217Z,1.40
2022-08-23T19:34:48.214Z,1.80
2022-08-23T19:37:22.706Z,1.85
2022-08-23T19:39:50.818Z,2.42
2022-08-23T19:42:19.702Z,1.65
2022-08-23T19:44:48.320Z,1.95
2022-08-23T19:47:19.745Z,1.90
2022-08-23T19:49:48.542Z,2.40
2022-08-23T19:52:16.329Z,1.88
2022-08-23T19:54:44.190Z,1.98
2022-08-23T19:57:12.060Z,3.45
2022-08-23T19:59:40.444Z,2.88
2022-08-23T20:02:09.711Z,1.60
2022-08-23T20:04:37.786Z,1.95
2022-08-23T20:07:06.104Z,2.22
2022-08-23T20:09:34.449Z,2.45
2022-08-23T20:12:03.278Z,2.50
2022-08-23T20:14:33.259Z,2.20
2022-08-23T20:17:04.441Z,2.45
2022-08-23T20:19:32.261Z,2.13
2022-08-23T20:22:19.958Z,2.38
2022-08-23T20:24:52.165Z,2.50
2022-08-23T20:27:30.957Z,2.40
2022-08-23T20:30:02.635Z,2.15
2022-08-23T20:32:31.310Z,2.70
2022-08-23T20:35:00.482Z,2.83
2022-08-23T20:37:28.703Z,2.05
2022-08-23T20:39:56.531Z,2.85
2022-08-23T20:42:25.542Z,1.85
2022-08-23T20:44:53.228Z,1.90
2022-08-23T20:47:21.743Z,2.25
2022-08-23T20:49:49.966Z,2.47
2022-08-23T20:52:18.590Z,2.10
2022-08-23T20:54:46.694Z,2.75
2022-08-23T20:57:14.775Z,2.08
2022-08-23T20:59:45.004Z,2.17
2022-08-23T21:02:13.288Z,2.72
2022-08-23T21:04:41.099Z,2.35
2022-08-23T21:07:08.938Z,2.03
2022-08-23T21:09:36.606Z,2.40
2022-08-23T21:12:04.467Z,2.15
2022-08-23T21:14:32.448Z,1.90
2022-08-23T21:17:00.086Z,2.15
2022-08-23T21:19:30.132Z,2.33
2022-08-23T21:21:58.577Z,2.80
2022-08-23T21:24:26.442Z,2.40
2022-08-23T21:26:54.229Z,2.22
2022-08-23T21:29:22.173Z,1.90
2022-08-23T21:31:49.916Z,1.70
2022-08-23T21:34:18.378Z,2.08
2022-08-23T21:36:46.267Z,1.60
2022-08-23T21:39:13.922Z,1.60
2022-08-23T21:41:43.703Z,1.98
2022-08-23T21:44:13.153Z,1.90
2022-08-23T21:46:41.756Z,2.10
2022-08-23T21:49:09.362Z,2.10
2022-08-23T21:51:40.867Z,2.40
2022-08-23T21:54:09.043Z,2.00
2022-08-23T21:56:37.528Z,2.10
2022-08-23T21:59:06.754Z,2.00
2022-08-23T22:01:35.786Z,2.10
2022-08-23T22:04:04.592Z,3.40
2022-08-23T22:06:32.382Z,2.33
2022-08-23T22:09:00.820Z,2.20
2022-08-23T22:11:29.204Z,1.77
2022-08-23T22:13:57.154Z,2.33
2022-08-23T22:16:24.928Z,2.30
2022-08-23T22:18:52.584Z,2.22
2022-08-23T22:21:20.398Z,2.08
2022-08-23T22:23:48.243Z,2.13
2022-08-23T22:26:15.979Z,2.00
2022-08-23T22:28:46.470Z,2.20
2022-08-23T22:31:15.458Z,2.63
2022-08-23T22:33:43.228Z,2.17
2022-08-23T22:36:13.943Z,3.28
2022-08-23T22:38:45.644Z,2.17
2022-08-23T22:41:17.710Z,2.10
2022-08-23T22:43:45.739Z,2.55
2022-08-23T22:46:14.048Z,2.35
2022-08-23T22:48:42.118Z,2.05
2022-08-23T22:51:11.946Z,2.92
2022-08-23T22:53:40.808Z,2.42
2022-08-23T22:56:10.405Z,1.98
2022-08-23T22:58:40.155Z,2.22
2022-08-23T23:01:12.966Z,2.38
2022-08-23T23:03:41.926Z,2.13
2022-08-23T23:06:10.460Z,2.42
2022-08-23T23:08:38.234Z,2.17
2022-08-23T23:11:07.355Z,2.60
2022-08-23T23:13:35.064Z,2.33
2022-08-23T23:16:03.846Z,2.13
2022-08-23T23:18:31.610Z,2.78
2022-08-23T23:21:00.379Z,2.45
2022-08-23T23:23:29.003Z,2.53
2022-08-23T23:25:59.384Z,2.50
2022-08-23T23:28:27.698Z,2.03
2022-08-23T23:30:55.735Z,2.08
2022-08-23T23:33:24.130Z,2.15
2022-08-23T23:35:51.993Z,2.13
2022-08-23T23:38:19.773Z,2.80
2022-08-23T23:40:47.546Z,2.45
2022-08-23T23:43:15.202Z,3.05
2022-08-23T23:45:43.114Z,2.35
2022-08-23T23:48:11.205Z,3.72
2022-08-23T23:50:45.019Z,1.92
2022-08-23T23:53:14.756Z,2.50
2022-08-23T23:55:42.797Z,2.47
2022-08-23T23:58:10.589Z,2.17
